sensor_id;sensor_type;location;lat;lon;timestamp;P1;durP1;ratioP1;P2;durP2;ratioP2
43363;SDS011;40636;52.424;-1.948;2023-09-12T00:02:16;2.40;;;1.80;;
43363;SDS011;40636;52.424;-1.948;2023-09-12T00:04:43;2.55;;;2.25;;
43363;SDS011;40636;52.424;-1.948;2023-09-12T00:07:10;4.05;;;2.08;;
43363;SDS011;40636;52.424;-1.948;2023-09-12T00:09:37;3.83;;;2.15;;
43363;SDS011;40636;52.424;-1.948;2023-09-12T00:12:04;3.30;;;2.05;;
43363;SDS011;40636;52.424;-1.948;2023-09-12T00:14:32;4.15;;;2.20;;
43363;SDS011;40636;52.424;-1.948;2023-09-12T00:16:58;2.47;;;2.10;;
43363;SDS011;40636;52.424;-1.948;2023-09-12T00:19:25;2.30;;;2.00;;
43363;SDS011;40636;52.424;-1.948;2023-09-12T00:21:52;1.95;;;1.60;;
43363;SDS011;40636;52.424;-1.948;2023-09-12T00:24:19;5.50;;;2.17;;
43363;SDS011;40636;52.424;-1.948;2023-09-12T00:26:46;2.13;;;1.88;;
43363;SDS011;40636;52.424;-1.948;2023-09-12T00:29:13;2.22;;;1.75;;
43363;SDS011;40636;52.424;-1.948;2023-09-12T00:31:40;2.42;;;1.92;;
43363;SDS011;40636;52.424;-1.948;2023-09-12T00:34:07;4.28;;;1.73;;
43363;SDS011;40636;52.424;-1.948;2023-09-12T00:36:34;2.80;;;1.92;;
43363;SDS011;40636;52.424;-1.948;2023-09-12T00:39:03;4.35;;;2.45;;
43363;SDS011;40636;52.424;-1.948;2023-09-12T00:41:30;5.88;;;2.28;;
43363;SDS011;40636;52.424;-1.948;2023-09-12T00:43:57;2.65;;;1.90;;
43363;SDS011;40636;52.424;-1.948;2023-09-12T00:46:24;3.67;;;2.65;;
43363;SDS011;40636;52.424;-1.948;2023-09-12T00:48:53;4.13;;;2.83;;
43363;SDS011;40636;52.424;-1.948;2023-09-12T00:51:20;4.60;;;2.58;;
43363;SDS011;40636;52.424;-1.948;2023-09-12T00:53:48;4.80;;;2.67;;
43363;SDS011;40636;52.424;-1.948;2023-09-12T00:56:15;5.55;;;2.80;;
43363;SDS011;40636;52.424;-1.948;2023-09-12T00:58:42;6.18;;;2.97;;
43363;SDS011;40636;52.424;-1.948;2023-09-12T01:01:10;5.00;;;3.03;;
43363;SDS011;40636;52.424;-1.948;2023-09-12T01:03:37;5.15;;;3.00;;
43363;SDS011;40636;52.424;-1.948;2023-09-12T01:06:04;5.50;;;2.80;;
43363;SDS011;40636;52.424;-1.948;2023-09-12T01:08:34;6.00;;;3.47;;
43363;SDS011;40636;52.424;-1.948;2023-09-12T01:11:03;5.28;;;2.90;;
43363;SDS011;40636;52.424;-1.948;2023-09-12T01:13:30;6.18;;;3.70;;
43363;SDS011;40636;52.424;-1.948;2023-09-12T01:15:57;6.57;;;4.10;;
43363;SDS011;40636;52.424;-1.948;2023-09-12T01:18:24;5.05;;;3.40;;
43363;SDS011;40636;52.424;-1.948;2023-09-12T01:20:58;6.40;;;3.47;;
43363;SDS011;40636;52.424;-1.948;2023-09-12T01:23:59;6.05;;;3.50;;
43363;SDS011;40636;52.424;-1.948;2023-09-12T01:26:41;3.63;;;2.90;;
43363;SDS011;40636;52.424;-1.948;2023-09-12T01:29:22;5.45;;;3.08;;
43363;SDS011;40636;52.424;-1.948;2023-09-12T01:31:50;6.43;;;3.70;;
43363;SDS011;40636;52.424;-1.948;2023-09-12T01:34:19;5.85;;;3.38;;
43363;SDS011;40636;52.424;-1.948;2023-09-12T01:36:45;5.35;;;2.80;;
43363;SDS011;40636;52.424;-1.948;2023-09-12T01:39:12;5.68;;;3.00;;
43363;SDS011;40636;52.424;-1.948;2023-09-12T01:41:40;4.20;;;2.92;;
43363;SDS011;40636;52.424;-1.948;2023-09-12T01:44:12;6.85;;;3.50;;
43363;SDS011;40636;52.424;-1.948;2023-09-12T01:46:41;6.80;;;3.42;;
43363;SDS011;40636;52.424;-1.948;2023-09-12T01:49:09;4.93;;;3.17;;
43363;SDS011;40636;52.424;-1.948;2023-09-12T01:51:37;4.13;;;2.75;;
43363;SDS011;40636;52.424;-1.948;2023-09-12T01:54:04;4.97;;;3.17;;
43363;SDS011;40636;52.424;-1.948;2023-09-12T01:56:33;4.72;;;3.83;;
43363;SDS011;40636;52.424;-1.948;2023-09-12T01:59:00;3.88;;;2.92;;
43363;SDS011;40636;52.424;-1.948;2023-09-12T02:01:29;3.72;;;2.80;;
43363;SDS011;40636;52.424;-1.948;2023-09-12T02:03:55;5.40;;;3.28;;
43363;SDS011;40636;52.424;-1.948;2023-09-12T02:06:22;5.35;;;3.33;;
43363;SDS011;40636;52.424;-1.948;2023-09-12T02:08:50;6.18;;;3.38;;
43363;SDS011;40636;52.424;-1.948;2023-09-12T02:11:16;4.97;;;3.00;;
43363;SDS011;40636;52.424;-1.948;2023-09-12T02:13:43;3.80;;;3.33;;
43363;SDS011;40636;52.424;-1.948;2023-09-12T02:16:10;3.55;;;3.00;;
43363;SDS011;40636;52.424;-1.948;2023-09-12T02:18:37;3.38;;;2.88;;
43363;SDS011;40636;52.424;-1.948;2023-09-12T02:21:04;5.40;;;3.15;;
43363;SDS011;40636;52.424;-1.948;2023-09-12T02:23:31;4.75;;;3.58;;
43363;SDS011;40636;52.424;-1.948;2023-09-12T02:25:57;7.15;;;3.03;;
43363;SDS011;40636;52.424;-1.948;2023-09-12T02:28:24;4.85;;;2.60;;
43363;SDS011;40636;52.424;-1.948;2023-09-12T02:30:51;4.35;;;2.80;;
43363;SDS011;40636;52.424;-1.948;2023-09-12T02:33:18;5.97;;;3.08;;
43363;SDS011;40636;52.424;-1.948;2023-09-12T02:35:45;3.97;;;2.78;;
43363;SDS011;40636;52.424;-1.948;2023-09-12T02:38:13;3.70;;;2.90;;
43363;SDS011;40636;52.424;-1.948;2023-09-12T02:40:40;4.07;;;3.67;;
43363;SDS011;40636;52.424;-1.948;2023-09-12T02:43:07;4.88;;;2.90;;
43363;SDS011;40636;52.424;-1.948;2023-09-12T02:45:34;3.40;;;2.92;;
43363;SDS011;40636;52.424;-1.948;2023-09-12T02:48:01;2.83;;;2.28;;
43363;SDS011;40636;52.424;-1.948;2023-09-12T02:50:28;3.83;;;2.60;;
43363;SDS011;40636;52.424;-1.948;2023-09-12T02:52:54;4.40;;;2.42;;
43363;SDS011;40636;52.424;-1.948;2023-09-12T02:55:22;5.43;;;2.60;;
43363;SDS011;40636;52.424;-1.948;2023-09-12T02:57:49;2.78;;;2.38;;
43363;SDS011;40636;52.424;-1.948;2023-09-12T03:00:16;3.08;;;2.22;;
43363;SDS011;40636;52.424;-1.948;2023-09-12T03:02:44;3.10;;;2.50;;
43363;SDS011;40636;52.424;-1.948;2023-09-12T03:05:11;2.88;;;2.03;;
43363;SDS011;40636;52.424;-1.948;2023-09-12T03:07:37;3.42;;;2.35;;
43363;SDS011;40636;52.424;-1.948;2023-09-12T03:10:04;3.75;;;2.22;;
43363;SDS011;40636;52.424;-1.948;2023-09-12T03:12:31;4.45;;;2.50;;
43363;SDS011;40636;52.424;-1.948;2023-09-12T03:14:58;4.20;;;2.90;;
43363;SDS011;40636;52.424;-1.948;2023-09-12T03:17:25;3.92;;;2.20;;
43363;SDS011;40636;52.424;-1.948;2023-09-12T03:19:54;3.53;;;2.53;;
43363;SDS011;40636;52.424;-1.948;2023-09-12T03:22:21;3.45;;;2.13;;
43363;SDS011;40636;52.424;-1.948;2023-09-12T03:24:47;3.95;;;2.17;;
43363;SDS011;40636;52.424;-1.948;2023-09-12T03:27:14;4.55;;;2.33;;
43363;SDS011;40636;52.424;-1.948;2023-09-12T03:29:41;3.90;;;2.50;;
43363;SDS011;40636;52.424;-1.948;2023-09-12T03:32:08;2.80;;;2.13;;
43363;SDS011;40636;52.424;-1.948;2023-09-12T03:34:35;2.47;;;2.28;;
43363;SDS011;40636;52.424;-1.948;2023-09-12T03:37:01;3.45;;;2.45;;
43363;SDS011;40636;52.424;-1.948;2023-09-12T03:39:28;3.38;;;1.90;;
43363;SDS011;40636;52.424;-1.948;2023-09-12T03:41:55;2.88;;;1.90;;
43363;SDS011;40636;52.424;-1.948;2023-09-12T03:44:22;3.90;;;2.40;;
43363;SDS011;40636;52.424;-1.948;2023-09-12T03:46:49;3.95;;;2.30;;
43363;SDS011;40636;52.424;-1.948;2023-09-12T03:49:16;3.13;;;2.20;;
43363;SDS011;40636;52.424;-1.948;2023-09-12T03:51:43;3.47;;;2.22;;
43363;SDS011;40636;52.424;-1.948;2023-09-12T03:54:09;3.10;;;1.95;;
43363;SDS011;40636;52.424;-1.948;2023-09-12T03:56:36;3.20;;;2.33;;
43363;SDS011;40636;52.424;-1.948;2023-09-12T03:59:03;4.05;;;2.30;;
43363;SDS011;40636;52.424;-1.948;2023-09-12T04:01:30;4.00;;;2.88;;
43363;SDS011;40636;52.424;-1.948;2023-09-12T04:03:57;3.55;;;2.78;;
43363;SDS011;40636;52.424;-1.948;2023-09-12T04:06:28;3.92;;;3.03;;
43363;SDS011;40636;52.424;-1.948;2023-09-12T04:08:54;4.25;;;2.97;;
43363;SDS011;40636;52.424;-1.948;2023-09-12T04:11:21;8.75;;;3.08;;
43363;SDS011;40636;52.424;-1.948;2023-09-12T04:14:05;3.33;;;2.70;;
43363;SDS011;40636;52.424;-1.948;2023-09-12T04:16:32;5.90;;;2.95;;
43363;SDS011;40636;52.424;-1.948;2023-09-12T04:19:00;4.72;;;3.20;;
43363;SDS011;40636;52.424;-1.948;2023-09-12T04:21:27;3.70;;;3.00;;
43363;SDS011;40636;52.424;-1.948;2023-09-12T04:23:54;4.25;;;3.15;;
43363;SDS011;40636;52.424;-1.948;2023-09-12T04:26:20;4.63;;;3.15;;
43363;SDS011;40636;52.424;-1.948;2023-09-12T04:28:47;4.70;;;3.47;;
43363;SDS011;40636;52.424;-1.948;2023-09-12T04:31:14;3.67;;;3.38;;
43363;SDS011;40636;52.424;-1.948;2023-09-12T04:33:41;4.97;;;3.45;;
43363;SDS011;40636;52.424;-1.948;2023-09-12T04:36:08;4.53;;;3.33;;
43363;SDS011;40636;52.424;-1.948;2023-09-12T04:38:35;4.68;;;3.70;;
43363;SDS011;40636;52.424;-1.948;2023-09-12T04:41:03;4.18;;;3.42;;
43363;SDS011;40636;52.424;-1.948;2023-09-12T04:43:33;4.18;;;3.33;;
43363;SDS011;40636;52.424;-1.948;2023-09-12T04:46:00;4.53;;;3.45;;
43363;SDS011;40636;52.424;-1.948;2023-09-12T04:48:27;4.25;;;3.85;;
43363;SDS011;40636;52.424;-1.948;2023-09-12T04:50:55;4.20;;;3.78;;
43363;SDS011;40636;52.424;-1.948;2023-09-12T04:53:21;5.47;;;4.22;;
43363;SDS011;40636;52.424;-1.948;2023-09-12T04:55:48;6.43;;;4.47;;
43363;SDS011;40636;52.424;-1.948;2023-09-12T04:58:18;4.70;;;4.20;;
43363;SDS011;40636;52.424;-1.948;2023-09-12T05:00:45;7.35;;;4.65;;
43363;SDS011;40636;52.424;-1.948;2023-09-12T05:03:12;5.70;;;4.38;;
43363;SDS011;40636;52.424;-1.948;2023-09-12T05:05:38;5.75;;;4.60;;
43363;SDS011;40636;52.424;-1.948;2023-09-12T05:08:05;4.90;;;4.40;;
43363;SDS011;40636;52.424;-1.948;2023-09-12T05:10:32;5.70;;;4.43;;
43363;SDS011;40636;52.424;-1.948;2023-09-12T05:12:59;5.93;;;5.07;;
43363;SDS011;40636;52.424;-1.948;2023-09-12T05:15:26;5.30;;;4.05;;
43363;SDS011;40636;52.424;-1.948;2023-09-12T05:17:53;5.60;;;4.85;;
43363;SDS011;40636;52.424;-1.948;2023-09-12T05:20:20;5.88;;;4.03;;
43363;SDS011;40636;52.424;-1.948;2023-09-12T05:22:46;6.40;;;3.95;;
43363;SDS011;40636;52.424;-1.948;2023-09-12T05:25:13;3.97;;;3.35;;
43363;SDS011;40636;52.424;-1.948;2023-09-12T05:27:40;5.93;;;3.60;;
43363;SDS011;40636;52.424;-1.948;2023-09-12T05:30:07;4.43;;;3.70;;
43363;SDS011;40636;52.424;-1.948;2023-09-12T05:32:34;4.40;;;3.50;;
43363;SDS011;40636;52.424;-1.948;2023-09-12T05:35:03;4.95;;;3.65;;
43363;SDS011;40636;52.424;-1.948;2023-09-12T05:37:46;5.97;;;4.03;;
43363;SDS011;40636;52.424;-1.948;2023-09-12T05:40:13;6.22;;;3.38;;
43363;SDS011;40636;52.424;-1.948;2023-09-12T05:42:40;5.65;;;3.78;;
43363;SDS011;40636;52.424;-1.948;2023-09-12T05:45:07;5.75;;;3.92;;
43363;SDS011;40636;52.424;-1.948;2023-09-12T05:47:34;7.82;;;3.88;;
43363;SDS011;40636;52.424;-1.948;2023-09-12T05:50:01;4.38;;;3.75;;
43363;SDS011;40636;52.424;-1.948;2023-09-12T05:52:30;4.65;;;4.15;;
43363;SDS011;40636;52.424;-1.948;2023-09-12T05:54:57;6.80;;;4.13;;
43363;SDS011;40636;52.424;-1.948;2023-09-12T05:57:24;4.78;;;3.70;;
43363;SDS011;40636;52.424;-1.948;2023-09-12T05:59:51;4.35;;;3.80;;
43363;SDS011;40636;52.424;-1.948;2023-09-12T06:02:18;5.53;;;4.03;;
43363;SDS011;40636;52.424;-1.948;2023-09-12T06:04:45;4.97;;;4.03;;
43363;SDS011;40636;52.424;-1.948;2023-09-12T06:07:12;5.28;;;3.83;;
43363;SDS011;40636;52.424;-1.948;2023-09-12T06:09:39;7.03;;;4.30;;
43363;SDS011;40636;52.424;-1.948;2023-09-12T06:12:06;4.80;;;3.90;;
43363;SDS011;40636;52.424;-1.948;2023-09-12T06:14:33;4.68;;;3.85;;
43363;SDS011;40636;52.424;-1.948;2023-09-12T06:17:00;7.05;;;4.53;;
43363;SDS011;40636;52.424;-1.948;2023-09-12T06:19:26;5.43;;;4.22;;
43363;SDS011;40636;52.424;-1.948;2023-09-12T06:21:53;6.25;;;4.00;;
43363;SDS011;40636;52.424;-1.948;2023-09-12T06:24:22;8.15;;;4.30;;
43363;SDS011;40636;52.424;-1.948;2023-09-12T06:26:49;6.13;;;3.95;;
43363;SDS011;40636;52.424;-1.948;2023-09-12T06:29:17;4.35;;;3.75;;
43363;SDS011;40636;52.424;-1.948;2023-09-12T06:31:44;5.38;;;3.95;;
43363;SDS011;40636;52.424;-1.948;2023-09-12T06:34:10;4.93;;;3.63;;
43363;SDS011;40636;52.424;-1.948;2023-09-12T06:36:38;4.97;;;3.63;;
43363;SDS011;40636;52.424;-1.948;2023-09-12T06:39:05;5.78;;;3.53;;
43363;SDS011;40636;52.424;-1.948;2023-09-12T06:41:32;4.32;;;3.10;;
43363;SDS011;40636;52.424;-1.948;2023-09-12T06:43:59;5.72;;;3.40;;
43363;SDS011;40636;52.424;-1.948;2023-09-12T06:46:26;4.03;;;3.20;;
43363;SDS011;40636;52.424;-1.948;2023-09-12T06:48:52;8.02;;;5.32;;
43363;SDS011;40636;52.424;-1.948;2023-09-12T06:51:22;6.85;;;4.28;;
43363;SDS011;40636;52.424;-1.948;2023-09-12T06:53:51;4.55;;;3.20;;
43363;SDS011;40636;52.424;-1.948;2023-09-12T06:56:18;4.97;;;3.92;;
43363;SDS011;40636;52.424;-1.948;2023-09-12T06:58:45;3.85;;;3.17;;
43363;SDS011;40636;52.424;-1.948;2023-09-12T07:01:12;4.30;;;3.28;;
43363;SDS011;40636;52.424;-1.948;2023-09-12T07:03:39;4.85;;;3.33;;
43363;SDS011;40636;52.424;-1.948;2023-09-12T07:06:07;4.30;;;3.70;;
43363;SDS011;40636;52.424;-1.948;2023-09-12T07:08:34;3.40;;;2.90;;
43363;SDS011;40636;52.424;-1.948;2023-09-12T07:11:02;3.92;;;3.25;;
43363;SDS011;40636;52.424;-1.948;2023-09-12T07:13:32;5.47;;;3.30;;
43363;SDS011;40636;52.424;-1.948;2023-09-12T07:15:59;5.18;;;2.85;;
43363;SDS011;40636;52.424;-1.948;2023-09-12T07:18:30;4.25;;;3.30;;
43363;SDS011;40636;52.424;-1.948;2023-09-12T07:21:02;4.45;;;2.65;;
43363;SDS011;40636;52.424;-1.948;2023-09-12T07:23:30;4.25;;;3.03;;
43363;SDS011;40636;52.424;-1.948;2023-09-12T07:25:57;3.92;;;3.10;;
43363;SDS011;40636;52.424;-1.948;2023-09-12T07:28:24;6.30;;;3.20;;
43363;SDS011;40636;52.424;-1.948;2023-09-12T07:30:52;4.20;;;3.15;;
43363;SDS011;40636;52.424;-1.948;2023-09-12T07:33:20;3.83;;;3.35;;
43363;SDS011;40636;52.424;-1.948;2023-09-12T07:35:48;5.43;;;2.47;;
43363;SDS011;40636;52.424;-1.948;2023-09-12T07:38:15;3.03;;;2.38;;
43363;SDS011;40636;52.424;-1.948;2023-09-12T07:40:42;4.15;;;3.33;;
43363;SDS011;40636;52.424;-1.948;2023-09-12T07:43:09;3.88;;;3.03;;
43363;SDS011;40636;52.424;-1.948;2023-09-12T07:45:36;5.03;;;3.58;;
43363;SDS011;40636;52.424;-1.948;2023-09-12T07:48:08;5.63;;;3.25;;
43363;SDS011;40636;52.424;-1.948;2023-09-12T07:50:38;4.00;;;2.85;;
43363;SDS011;40636;52.424;-1.948;2023-09-12T07:53:05;3.25;;;2.72;;
43363;SDS011;40636;52.424;-1.948;2023-09-12T07:55:36;5.43;;;3.03;;
43363;SDS011;40636;52.424;-1.948;2023-09-12T07:58:15;2.78;;;2.30;;
43363;SDS011;40636;52.424;-1.948;2023-09-12T08:00:46;2.78;;;2.40;;
43363;SDS011;40636;52.424;-1.948;2023-09-12T08:03:13;3.38;;;2.30;;
43363;SDS011;40636;52.424;-1.948;2023-09-12T08:05:42;4.78;;;2.00;;
43363;SDS011;40636;52.424;-1.948;2023-09-12T08:08:09;4.47;;;2.60;;
43363;SDS011;40636;52.424;-1.948;2023-09-12T08:10:36;3.05;;;2.50;;
43363;SDS011;40636;52.424;-1.948;2023-09-12T08:13:03;3.30;;;2.45;;
43363;SDS011;40636;52.424;-1.948;2023-09-12T08:15:30;3.47;;;2.65;;
43363;SDS011;40636;52.424;-1.948;2023-09-12T08:17:57;3.53;;;2.50;;
43363;SDS011;40636;52.424;-1.948;2023-09-12T08:20:24;4.72;;;3.30;;
43363;SDS011;40636;52.424;-1.948;2023-09-12T08:22:51;3.20;;;2.22;;
43363;SDS011;40636;52.424;-1.948;2023-09-12T08:25:18;2.95;;;2.60;;
43363;SDS011;40636;52.424;-1.948;2023-09-12T08:27:44;4.40;;;2.80;;
43363;SDS011;40636;52.424;-1.948;2023-09-12T08:30:13;4.22;;;3.10;;
43363;SDS011;40636;52.424;-1.948;2023-09-12T08:32:41;5.18;;;3.13;;
43363;SDS011;40636;52.424;-1.948;2023-09-12T08:35:11;4.18;;;3.08;;
43363;SDS011;40636;52.424;-1.948;2023-09-12T08:37:39;3.85;;;2.90;;
43363;SDS011;40636;52.424;-1.948;2023-09-12T08:40:07;5.05;;;3.33;;
43363;SDS011;40636;52.424;-1.948;2023-09-12T08:42:44;3.28;;;2.60;;
43363;SDS011;40636;52.424;-1.948;2023-09-12T08:45:13;2.88;;;2.40;;
43363;SDS011;40636;52.424;-1.948;2023-09-12T08:47:42;4.57;;;2.40;;
43363;SDS011;40636;52.424;-1.948;2023-09-12T08:50:17;3.55;;;2.38;;
43363;SDS011;40636;52.424;-1.948;2023-09-12T08:52:45;2.72;;;2.28;;
43363;SDS011;40636;52.424;-1.948;2023-09-12T08:55:31;4.90;;;2.13;;
43363;SDS011;40636;52.424;-1.948;2023-09-12T08:58:03;3.85;;;2.25;;
43363;SDS011;40636;52.424;-1.948;2023-09-12T09:00:31;3.25;;;2.30;;
43363;SDS011;40636;52.424;-1.948;2023-09-12T09:03:01;3.45;;;2.35;;
43363;SDS011;40636;52.424;-1.948;2023-09-12T09:05:30;3.05;;;1.63;;
43363;SDS011;40636;52.424;-1.948;2023-09-12T09:07:59;1.67;;;1.40;;
43363;SDS011;40636;52.424;-1.948;2023-09-12T09:10:28;2.22;;;1.50;;
43363;SDS011;40636;52.424;-1.948;2023-09-12T09:13:15;1.75;;;1.50;;
43363;SDS011;40636;52.424;-1.948;2023-09-12T09:15:42;2.90;;;1.58;;
43363;SDS011;40636;52.424;-1.948;2023-09-12T09:18:09;4.05;;;3.13;;
43363;SDS011;40636;52.424;-1.948;2023-09-12T09:20:38;3.08;;;2.30;;
43363;SDS011;40636;52.424;-1.948;2023-09-12T09:23:09;2.22;;;1.80;;
43363;SDS011;40636;52.424;-1.948;2023-09-12T09:25:41;2.65;;;1.80;;
43363;SDS011;40636;52.424;-1.948;2023-09-12T09:28:19;3.35;;;1.52;;
43363;SDS011;40636;52.424;-1.948;2023-09-12T09:30:50;4.15;;;1.50;;
43363;SDS011;40636;52.424;-1.948;2023-09-12T09:33:18;2.75;;;1.40;;
43363;SDS011;40636;52.424;-1.948;2023-09-12T09:35:47;4.20;;;1.20;;
43363;SDS011;40636;52.424;-1.948;2023-09-12T09:38:15;2.47;;;1.25;;
43363;SDS011;40636;52.424;-1.948;2023-09-12T09:40:46;2.85;;;1.45;;
43363;SDS011;40636;52.424;-1.948;2023-09-12T09:43:13;2.45;;;1.70;;
43363;SDS011;40636;52.424;-1.948;2023-09-12T09:45:46;4.28;;;1.85;;
43363;SDS011;40636;52.424;-1.948;2023-09-12T09:48:17;1.40;;;1.15;;
43363;SDS011;40636;52.424;-1.948;2023-09-12T09:50:49;1.67;;;1.00;;
43363;SDS011;40636;52.424;-1.948;2023-09-12T09:53:16;1.25;;;1.00;;
43363;SDS011;40636;52.424;-1.948;2023-09-12T09:55:44;0.95;;;0.80;;
43363;SDS011;40636;52.424;-1.948;2023-09-12T09:58:15;1.00;;;0.90;;
43363;SDS011;40636;52.424;-1.948;2023-09-12T10:00:45;1.45;;;0.80;;
43363;SDS011;40636;52.424;-1.948;2023-09-12T10:03:15;0.80;;;0.80;;
43363;SDS011;40636;52.424;-1.948;2023-09-12T10:05:45;1.02;;;0.70;;
43363;SDS011;40636;52.424;-1.948;2023-09-12T10:08:17;0.77;;;0.70;;
43363;SDS011;40636;52.424;-1.948;2023-09-12T10:10:45;0.68;;;0.50;;
43363;SDS011;40636;52.424;-1.948;2023-09-12T10:13:14;0.52;;;0.52;;
43363;SDS011;40636;52.424;-1.948;2023-09-12T10:15:43;0.88;;;0.73;;
43363;SDS011;40636;52.424;-1.948;2023-09-12T10:18:13;0.45;;;0.45;;
43363;SDS011;40636;52.424;-1.948;2023-09-12T10:21:05;0.55;;;0.55;;
43363;SDS011;40636;52.424;-1.948;2023-09-12T10:23:39;0.50;;;0.50;;
43363;SDS011;40636;52.424;-1.948;2023-09-12T10:26:11;0.82;;;0.40;;
43363;SDS011;40636;52.424;-1.948;2023-09-12T10:28:40;0.85;;;0.70;;
43363;SDS011;40636;52.424;-1.948;2023-09-12T10:31:09;0.68;;;0.68;;
43363;SDS011;40636;52.424;-1.948;2023-09-12T10:33:39;0.80;;;0.60;;
43363;SDS011;40636;52.424;-1.948;2023-09-12T10:36:08;1.38;;;0.75;;
43363;SDS011;40636;52.424;-1.948;2023-09-12T10:38:45;1.40;;;0.60;;
43363;SDS011;40636;52.424;-1.948;2023-09-12T10:41:15;0.60;;;0.60;;
43363;SDS011;40636;52.424;-1.948;2023-09-12T10:43:43;0.98;;;0.88;;
43363;SDS011;40636;52.424;-1.948;2023-09-12T10:46:16;0.80;;;0.70;;
43363;SDS011;40636;52.424;-1.948;2023-09-12T10:48:44;1.45;;;0.70;;
43363;SDS011;40636;52.424;-1.948;2023-09-12T10:51:12;0.93;;;0.80;;
43363;SDS011;40636;52.424;-1.948;2023-09-12T10:53:44;1.40;;;0.90;;
43363;SDS011;40636;52.424;-1.948;2023-09-12T10:56:16;1.00;;;0.70;;
43363;SDS011;40636;52.424;-1.948;2023-09-12T11:01:40;4.63;;;4.18;;
43363;SDS011;40636;52.424;-1.948;2023-09-12T11:06:47;8.23;;;5.85;;
43363;SDS011;40636;52.424;-1.948;2023-09-12T11:11:47;6.07;;;5.03;;
43363;SDS011;40636;52.424;-1.948;2023-09-12T11:14:15;7.10;;;5.43;;
43363;SDS011;40636;52.424;-1.948;2023-09-12T11:19:43;7.13;;;5.53;;
43363;SDS011;40636;52.424;-1.948;2023-09-12T11:22:24;5.43;;;4.63;;
43363;SDS011;40636;52.424;-1.948;2023-09-12T11:24:53;5.47;;;4.88;;
43363;SDS011;40636;52.424;-1.948;2023-09-12T11:27:26;6.63;;;4.93;;
43363;SDS011;40636;52.424;-1.948;2023-09-12T11:30:04;6.10;;;5.20;;
43363;SDS011;40636;52.424;-1.948;2023-09-12T11:32:34;6.57;;;5.15;;
43363;SDS011;40636;52.424;-1.948;2023-09-12T11:35:06;4.65;;;4.22;;
43363;SDS011;40636;52.424;-1.948;2023-09-12T11:37:34;5.50;;;4.75;;
43363;SDS011;40636;52.424;-1.948;2023-09-12T11:40:40;4.53;;;4.13;;
43363;SDS011;40636;52.424;-1.948;2023-09-12T11:43:08;4.65;;;4.07;;
43363;SDS011;40636;52.424;-1.948;2023-09-12T11:45:46;4.60;;;3.80;;
43363;SDS011;40636;52.424;-1.948;2023-09-12T11:48:14;6.03;;;4.32;;
43363;SDS011;40636;52.424;-1.948;2023-09-12T11:50:41;5.50;;;4.72;;
43363;SDS011;40636;52.424;-1.948;2023-09-12T11:53:09;4.50;;;3.83;;
43363;SDS011;40636;52.424;-1.948;2023-09-12T11:55:44;6.55;;;4.38;;
43363;SDS011;40636;52.424;-1.948;2023-09-12T11:58:15;5.80;;;4.78;;
43363;SDS011;40636;52.424;-1.948;2023-09-12T12:00:48;8.38;;;4.68;;
43363;SDS011;40636;52.424;-1.948;2023-09-12T12:03:18;6.60;;;4.55;;
43363;SDS011;40636;52.424;-1.948;2023-09-12T12:05:46;4.88;;;4.38;;
43363;SDS011;40636;52.424;-1.948;2023-09-12T12:08:14;6.55;;;4.28;;
43363;SDS011;40636;52.424;-1.948;2023-09-12T12:10:52;5.80;;;5.20;;
43363;SDS011;40636;52.424;-1.948;2023-09-12T12:13:21;7.40;;;5.50;;
43363;SDS011;40636;52.424;-1.948;2023-09-12T12:15:49;6.50;;;5.75;;
43363;SDS011;40636;52.424;-1.948;2023-09-12T12:18:16;9.05;;;6.03;;
43363;SDS011;40636;52.424;-1.948;2023-09-12T12:20:43;7.40;;;6.30;;
43363;SDS011;40636;52.424;-1.948;2023-09-12T12:23:10;13.68;;;6.57;;
43363;SDS011;40636;52.424;-1.948;2023-09-12T12:25:38;8.55;;;6.88;;
43363;SDS011;40636;52.424;-1.948;2023-09-12T12:28:06;6.63;;;4.75;;
43363;SDS011;40636;52.424;-1.948;2023-09-12T12:30:34;3.67;;;3.28;;
43363;SDS011;40636;52.424;-1.948;2023-09-12T12:33:07;1.70;;;1.48;;
43363;SDS011;40636;52.424;-1.948;2023-09-12T12:36:05;1.80;;;1.70;;
43363;SDS011;40636;52.424;-1.948;2023-09-12T12:38:35;1.48;;;1.38;;
43363;SDS011;40636;52.424;-1.948;2023-09-12T12:41:24;1.77;;;1.30;;
43363;SDS011;40636;52.424;-1.948;2023-09-12T12:44:08;1.95;;;1.60;;
43363;SDS011;40636;52.424;-1.948;2023-09-12T12:46:47;2.08;;;1.88;;
43363;SDS011;40636;52.424;-1.948;2023-09-12T12:49:21;1.80;;;1.70;;
43363;SDS011;40636;52.424;-1.948;2023-09-12T12:51:49;4.65;;;1.70;;
43363;SDS011;40636;52.424;-1.948;2023-09-12T12:54:16;1.50;;;1.40;;
43363;SDS011;40636;52.424;-1.948;2023-09-12T12:56:43;3.33;;;1.55;;
43363;SDS011;40636;52.424;-1.948;2023-09-12T12:59:13;1.52;;;1.42;;
43363;SDS011;40636;52.424;-1.948;2023-09-12T13:01:40;3.55;;;1.55;;
43363;SDS011;40636;52.424;-1.948;2023-09-12T13:04:07;1.45;;;1.35;;
43363;SDS011;40636;52.424;-1.948;2023-09-12T13:06:35;2.58;;;1.73;;
43363;SDS011;40636;52.424;-1.948;2023-09-12T13:09:03;2.28;;;1.70;;
43363;SDS011;40636;52.424;-1.948;2023-09-12T13:11:32;1.35;;;1.25;;
43363;SDS011;40636;52.424;-1.948;2023-09-12T13:14:02;2.47;;;1.70;;
43363;SDS011;40636;52.424;-1.948;2023-09-12T13:16:38;1.85;;;1.63;;
43363;SDS011;40636;52.424;-1.948;2023-09-12T13:19:08;2.13;;;1.60;;
43363;SDS011;40636;52.424;-1.948;2023-09-12T13:21:37;1.50;;;1.30;;
43363;SDS011;40636;52.424;-1.948;2023-09-12T13:24:04;1.67;;;1.27;;
43363;SDS011;40636;52.424;-1.948;2023-09-12T13:26:31;1.30;;;1.20;;
43363;SDS011;40636;52.424;-1.948;2023-09-12T13:28:58;1.55;;;1.45;;
43363;SDS011;40636;52.424;-1.948;2023-09-12T13:31:25;2.25;;;1.40;;
43363;SDS011;40636;52.424;-1.948;2023-09-12T13:33:52;1.30;;;1.20;;
43363;SDS011;40636;52.424;-1.948;2023-09-12T13:36:20;1.38;;;1.27;;
43363;SDS011;40636;52.424;-1.948;2023-09-12T13:38:47;2.35;;;1.50;;
43363;SDS011;40636;52.424;-1.948;2023-09-12T13:41:15;1.40;;;1.30;;
43363;SDS011;40636;52.424;-1.948;2023-09-12T13:43:42;1.20;;;1.10;;
43363;SDS011;40636;52.424;-1.948;2023-09-12T13:46:12;1.27;;;1.17;;
43363;SDS011;40636;52.424;-1.948;2023-09-12T13:48:39;2.17;;;1.42;;
43363;SDS011;40636;52.424;-1.948;2023-09-12T13:51:06;3.20;;;1.67;;
43363;SDS011;40636;52.424;-1.948;2023-09-12T13:53:33;1.80;;;1.40;;
43363;SDS011;40636;52.424;-1.948;2023-09-12T13:56:00;1.55;;;1.40;;
43363;SDS011;40636;52.424;-1.948;2023-09-12T13:58:48;1.27;;;1.17;;
43363;SDS011;40636;52.424;-1.948;2023-09-12T14:01:16;2.25;;;1.25;;
43363;SDS011;40636;52.424;-1.948;2023-09-12T14:03:58;1.33;;;1.00;;
43363;SDS011;40636;52.424;-1.948;2023-09-12T14:06:26;1.13;;;0.95;;
43363;SDS011;40636;52.424;-1.948;2023-09-12T14:08:54;2.10;;;1.08;;
43363;SDS011;40636;52.424;-1.948;2023-09-12T14:11:21;1.67;;;1.10;;
43363;SDS011;40636;52.424;-1.948;2023-09-12T14:14:01;0.70;;;0.70;;
43363;SDS011;40636;52.424;-1.948;2023-09-12T14:16:42;1.38;;;1.20;;
43363;SDS011;40636;52.424;-1.948;2023-09-12T14:19:14;2.72;;;0.80;;
43363;SDS011;40636;52.424;-1.948;2023-09-12T14:21:42;1.25;;;1.02;;
43363;SDS011;40636;52.424;-1.948;2023-09-12T14:24:12;1.35;;;1.08;;
43363;SDS011;40636;52.424;-1.948;2023-09-12T14:26:39;2.85;;;1.30;;
43363;SDS011;40636;52.424;-1.948;2023-09-12T14:29:07;2.13;;;1.30;;
43363;SDS011;40636;52.424;-1.948;2023-09-12T14:31:34;1.83;;;1.38;;
43363;SDS011;40636;52.424;-1.948;2023-09-12T14:34:04;2.20;;;1.42;;
43363;SDS011;40636;52.424;-1.948;2023-09-12T14:36:32;2.00;;;1.70;;
43363;SDS011;40636;52.424;-1.948;2023-09-12T14:38:59;1.50;;;1.30;;
43363;SDS011;40636;52.424;-1.948;2023-09-12T14:41:26;1.63;;;1.33;;
43363;SDS011;40636;52.424;-1.948;2023-09-12T14:43:53;1.38;;;1.00;;
43363;SDS011;40636;52.424;-1.948;2023-09-12T14:46:20;1.15;;;1.05;;
43363;SDS011;40636;52.424;-1.948;2023-09-12T14:48:47;1.30;;;1.10;;
43363;SDS011;40636;52.424;-1.948;2023-09-12T14:51:26;1.40;;;1.20;;
43363;SDS011;40636;52.424;-1.948;2023-09-12T14:53:59;0.77;;;0.77;;
43363;SDS011;40636;52.424;-1.948;2023-09-12T14:56:26;1.17;;;1.08;;